createdAt,value
2023-04-22T00:01:09.980Z,100.00
2023-04-22T00:03:47.604Z,100.00
2023-04-22T00:06:16.144Z,100.00
2023-04-22T00:08:43.296Z,100.00
2023-04-22T00:11:11.150Z,100.00
2023-04-22T00:13:38.382Z,100.00
2023-04-22T00:16:28.828Z,100.00
2023-04-22T00:18:59.997Z,100.00
2023-04-22T00:21:27.579Z,100.00
2023-04-22T00:23:58.161Z,100.00
2023-04-22T00:26:30.950Z,100.00
2023-04-22T00:29:05.998Z,100.00
2023-04-22T00:31:37.763Z,100.00
2023-04-22T00:34:06.417Z,100.00
2023-04-22T00:36:36.549Z,100.00
2023-04-22T00:39:03.899Z,100.00
2023-04-22T00:41:32.718Z,100.00
2023-04-22T00:44:00.996Z,100.00
2023-04-22T00:46:29.075Z,100.00
2023-04-22T00:48:57.851Z,100.00
2023-04-22T00:51:25.011Z,100.00
2023-04-22T00:53:52.217Z,100.00
2023-04-22T00:56:24.721Z,100.00
2023-04-22T00:59:04.395Z,100.00
2023-04-22T01:01:41.907Z,100.00
2023-04-22T01:04:15.513Z,100.00
2023-04-22T01:06:44.632Z,100.00
2023-04-22T01:09:12.451Z,100.00
2023-04-22T01:11:39.769Z,100.00
2023-04-22T01:14:14.721Z,100.00
2023-04-22T01:16:43.850Z,100.00
2023-04-22T01:19:12.235Z,100.00
2023-04-22T01:21:47.528Z,100.00
2023-04-22T01:24:19.604Z,100.00
2023-04-22T01:26:48.378Z,100.00
2023-04-22T01:29:21.936Z,100.00
2023-04-22T01:31:52.449Z,100.00
2023-04-22T01:34:26.756Z,100.00
2023-04-22T01:36:56.239Z,100.00
2023-04-22T01:39:24.360Z,100.00
2023-04-22T01:41:51.985Z,100.00
2023-04-22T01:44:19.884Z,100.00
2023-04-22T01:46:47.228Z,100.00
2023-04-22T01:49:16.184Z,100.00
2023-04-22T01:51:43.759Z,100.00
2023-04-22T01:54:14.105Z,100.00
2023-04-22T01:56:48.886Z,100.00
2023-04-22T01:59:16.118Z,100.00
2023-04-22T02:01:43.499Z,100.00
2023-04-22T02:04:15.379Z,100.00
2023-04-22T02:06:45.823Z,100.00
2023-04-22T02:09:14.915Z,100.00
2023-04-22T02:11:42.119Z,100.00
2023-04-22T02:14:11.982Z,100.00
2023-04-22T02:16:46.683Z,100.00
2023-04-22T02:19:13.840Z,100.00
2023-04-22T02:21:44.994Z,100.00
2023-04-22T02:24:21.012Z,100.00
2023-04-22T02:26:49.227Z,100.00
2023-04-22T02:29:19.520Z,100.00
2023-04-22T02:31:47.747Z,100.00
2023-04-22T02:34:16.666Z,100.00
2023-04-22T02:36:43.731Z,100.00
2023-04-22T02:39:11.999Z,100.00
2023-04-22T02:41:43.079Z,100.00
2023-04-22T02:44:15.237Z,100.00
2023-04-22T02:46:44.891Z,100.00
2023-04-22T02:49:15.176Z,100.00
2023-04-22T02:51:53.347Z,100.00
2023-04-22T02:54:22.189Z,100.00
2023-04-22T02:56:49.387Z,100.00
2023-04-22T02:59:16.709Z,100.00
2023-04-22T03:01:45.781Z,100.00
2023-04-22T03:04:26.284Z,100.00
2023-04-22T03:06:54.268Z,100.00
2023-04-22T03:09:27.950Z,100.00
2023-04-22T03:11:55.889Z,100.00
2023-04-22T03:14:27.430Z,100.00
2023-04-22T03:17:02.369Z,100.00
2023-04-22T03:19:30.996Z,100.00
2023-04-22T03:21:59.242Z,100.00
2023-04-22T03:24:26.886Z,100.00
2023-04-22T03:26:56.874Z,100.00
2023-04-22T03:29:27.124Z,100.00
2023-04-22T03:31:54.518Z,100.00
2023-04-22T03:34:22.105Z,100.00
2023-04-22T03:36:49.646Z,100.00
2023-04-22T03:39:18.953Z,100.00
2023-04-22T03:41:46.933Z,100.00
2023-04-22T03:44:14.124Z,100.00
2023-04-22T03:46:48.806Z,100.00
2023-04-22T03:49:39.495Z,100.00
2023-04-22T03:52:14.604Z,100.00
2023-04-22T03:54:50.675Z,100.00
2023-04-22T03:57:21.390Z,100.00
2023-04-22T03:59:48.707Z,100.00
2023-04-22T04:02:16.199Z,100.00
2023-04-22T04:04:43.786Z,100.00
2023-04-22T04:07:11.221Z,100.00
2023-04-22T04:09:38.693Z,100.00
2023-04-22T04:12:09.143Z,100.00
2023-04-22T04:14:41.182Z,100.00
2023-04-22T04:17:19.169Z,100.00
2023-04-22T04:19:51.217Z,100.00
2023-04-22T04:22:20.728Z,100.00
2023-04-22T04:24:56.118Z,100.00
2023-04-22T04:27:27.984Z,100.00
2023-04-22T04:29:56.226Z,100.00
2023-04-22T04:32:37.001Z,100.00
2023-04-22T04:35:14.879Z,100.00
2023-04-22T04:37:46.978Z,100.00
2023-04-22T04:40:32.914Z,100.00
2023-04-22T04:43:33.269Z,100.00
2023-04-22T04:46:10.848Z,100.00
2023-04-22T04:48:39.286Z,100.00
2023-04-22T04:51:08.878Z,100.00
2023-04-22T04:53:45.603Z,100.00
2023-04-22T04:56:17.139Z,100.00
2023-04-22T04:58:45.769Z,100.00
2023-04-22T05:01:18.877Z,100.00
2023-04-22T05:03:50.915Z,100.00
2023-04-22T05:06:23.307Z,100.00
2023-04-22T05:08:55.971Z,100.00
2023-04-22T05:11:24.004Z,100.00
2023-04-22T05:13:52.786Z,100.00
2023-04-22T05:16:26.794Z,100.00
2023-04-22T05:18:55.116Z,100.00
2023-04-22T05:21:29.826Z,100.00
2023-04-22T05:24:03.413Z,100.00
2023-04-22T05:26:30.625Z,100.00
2023-04-22T05:29:00.724Z,100.00
2023-04-22T05:31:30.816Z,100.00
2023-04-22T05:34:02.240Z,100.00
2023-04-22T05:36:32.505Z,100.00
2023-04-22T05:39:00.737Z,100.00
2023-04-22T05:41:33.053Z,100.00
2023-04-22T05:44:04.419Z,100.00
2023-04-22T05:46:32.853Z,100.00
2023-04-22T05:49:02.932Z,100.00
2023-04-22T05:51:48.425Z,100.00
2023-04-22T05:54:19.242Z,100.00
2023-04-22T05:56:46.421Z,100.00
2023-04-22T05:59:13.602Z,100.00
2023-04-22T06:01:51.453Z,100.00
2023-04-22T06:04:21.636Z,100.00
2023-04-22T06:06:49.984Z,100.00
2023-04-22T06:09:19.695Z,100.00
2023-04-22T06:11:50.264Z,100.00
2023-04-22T06:14:26.919Z,100.00
2023-04-22T06:16:54.994Z,100.00
2023-04-22T06:19:22.211Z,100.00
2023-04-22T06:21:49.371Z,100.00
2023-04-22T06:24:17.959Z,100.00
2023-04-22T06:26:49.188Z,100.00
2023-04-22T06:29:27.520Z,100.00
2023-04-22T06:31:59.410Z,100.00
2023-04-22T06:34:30.563Z,100.00
2023-04-22T06:36:57.859Z,100.00
2023-04-22T06:39:28.313Z,100.00
2023-04-22T06:42:28.943Z,100.00
2023-04-22T06:45:17.789Z,100.00
2023-04-22T06:48:18.777Z,99.17
2023-04-22T06:51:12.993Z,97.16
2023-04-22T06:53:43.994Z,95.62
2023-04-22T06:56:19.207Z,94.47
2023-04-22T06:58:51.329Z,94.91
2023-04-22T07:01:19.223Z,90.17
2023-04-22T07:03:53.135Z,91.87
2023-04-22T07:06:38.648Z,88.14
2023-04-22T07:09:12.688Z,90.95
2023-04-22T07:11:40.034Z,90.31
2023-04-22T07:14:15.492Z,85.50
2023-04-22T07:16:42.893Z,80.37
2023-04-22T07:19:13.400Z,81.02
2023-04-22T07:21:40.659Z,78.05
2023-04-22T07:24:13.782Z,76.48
2023-04-22T07:26:50.066Z,76.95
2023-04-22T07:29:17.223Z,76.98
2023-04-22T07:34:28.503Z,77.08
2023-04-22T07:36:55.964Z,76.26
2023-04-22T07:39:32.893Z,77.76
2023-04-22T07:42:05.267Z,80.00
2023-04-22T07:44:34.521Z,78.00
2023-04-22T07:47:11.295Z,82.68
2023-04-22T07:50:07.131Z,80.14
2023-04-22T07:52:36.192Z,82.33
2023-04-22T07:55:10.976Z,82.40
2023-04-22T07:57:44.087Z,79.91
2023-04-22T08:00:11.778Z,77.17
2023-04-22T08:02:44.879Z,78.59
2023-04-22T08:05:12.412Z,79.01
2023-04-22T08:07:39.630Z,80.23
2023-04-22T08:10:07.379Z,76.06
2023-04-22T08:12:35.209Z,71.75
2023-04-22T08:15:05.664Z,74.62
2023-04-22T08:17:33.231Z,73.94
2023-04-22T08:20:06.606Z,71.80
2023-04-22T08:22:35.425Z,69.62
2023-04-22T08:25:02.906Z,69.48
2023-04-22T08:27:30.102Z,68.65
2023-04-22T08:29:57.926Z,69.54
2023-04-22T08:32:26.621Z,70.23
2023-04-22T08:35:04.442Z,70.33
2023-04-22T08:37:32.721Z,69.27
2023-04-22T08:40:00.051Z,69.50
2023-04-22T08:42:30.605Z,70.56
2023-04-22T08:44:58.490Z,68.94
2023-04-22T08:47:28.943Z,67.95
2023-04-22T08:50:00.808Z,68.83
2023-04-22T08:52:27.934Z,69.62
2023-04-22T08:55:00.231Z,70.48
2023-04-22T08:57:28.798Z,68.14
2023-04-22T09:00:03.452Z,66.33
2023-04-22T09:02:35.202Z,65.92
2023-04-22T09:05:06.056Z,64.88
2023-04-22T09:07:35.214Z,64.39
2023-04-22T09:10:03.287Z,62.16
2023-04-22T09:12:33.447Z,62.74
2023-04-22T09:15:00.832Z,61.42
2023-04-22T09:17:35.364Z,62.25
2023-04-22T09:20:06.195Z,59.63
2023-04-22T09:22:46.926Z,58.52
2023-04-22T09:25:22.684Z,59.38
2023-04-22T09:27:59.695Z,63.92
2023-04-22T09:30:39.191Z,57.30
2023-04-22T09:33:09.157Z,56.49
2023-04-22T09:35:41.491Z,58.08
2023-04-22T09:38:11.631Z,57.17
2023-04-22T09:40:44.318Z,53.75
2023-04-22T09:43:22.351Z,56.84
2023-04-22T09:45:51.156Z,53.90
2023-04-22T09:48:19.642Z,54.56
2023-04-22T09:50:49.198Z,52.39
2023-04-22T09:53:19.139Z,52.08
2023-04-22T09:56:00.920Z,51.82
2023-04-22T09:58:28.264Z,53.52
2023-04-22T10:00:59.974Z,51.83
2023-04-22T10:03:36.806Z,51.67
2023-04-22T10:06:05.736Z,50.17
2023-04-22T10:08:33.552Z,49.91
2023-04-22T10:11:01.026Z,51.19
2023-04-22T10:13:31.139Z,49.82
2023-04-22T10:15:58.896Z,51.87
2023-04-22T10:18:29.590Z,50.70
2023-04-22T10:21:00.523Z,49.95
2023-04-22T10:23:35.858Z,49.46
2023-04-22T10:26:05.847Z,49.22
2023-04-22T10:28:33.470Z,50.81
2023-04-22T10:31:20.746Z,50.72
2023-04-22T10:33:48.069Z,50.50
2023-04-22T10:36:22.569Z,49.78
2023-04-22T10:38:58.649Z,47.40
2023-04-22T10:41:32.736Z,46.62
2023-04-22T10:44:09.236Z,49.93
2023-04-22T10:46:43.783Z,48.31
2023-04-22T10:49:20.938Z,48.25
2023-04-22T10:51:59.130Z,48.65
2023-04-22T10:54:28.752Z,48.31
2023-04-22T10:57:02.121Z,49.05
2023-04-22T10:59:37.640Z,48.90
2023-04-22T11:02:16.117Z,48.90
2023-04-22T11:04:48.240Z,47.09
2023-04-22T11:07:20.714Z,46.97
2023-04-22T11:09:53.402Z,48.51
2023-04-22T11:12:38.760Z,47.36
2023-04-22T11:15:10.848Z,47.66
2023-04-22T11:17:40.430Z,49.00
2023-04-22T11:20:17.588Z,47.46
2023-04-22T11:22:49.459Z,48.33
2023-04-22T11:25:26.976Z,49.54
2023-04-22T11:27:55.552Z,47.87
2023-04-22T11:30:26.137Z,49.82
2023-04-22T11:32:59.906Z,47.03
2023-04-22T11:35:30.435Z,49.44
2023-04-22T11:38:00.661Z,48.59
2023-04-22T11:40:44.701Z,46.52
2023-04-22T11:43:18.568Z,48.84
2023-04-22T11:45:46.528Z,46.79
2023-04-22T11:48:26.590Z,47.86
2023-04-22T11:51:16.034Z,48.86
2023-04-22T11:53:53.676Z,48.66
2023-04-22T11:56:24.654Z,46.27
2023-04-22T11:58:51.862Z,49.57
2023-04-22T12:01:23.409Z,46.30
2023-04-22T12:04:00.704Z,48.25
2023-04-22T12:06:33.748Z,46.38
2023-04-22T12:09:02.535Z,46.27
2023-04-22T12:11:33.020Z,44.97
2023-04-22T12:14:06.609Z,46.04
2023-04-22T12:16:41.673Z,46.36
2023-04-22T12:19:11.340Z,47.93
2023-04-22T12:21:48.161Z,48.65
2023-04-22T12:24:18.784Z,47.20
2023-04-22T12:26:48.847Z,46.51
2023-04-22T12:29:16.893Z,47.81
2023-04-22T12:31:47.470Z,47.71
2023-04-22T12:34:14.544Z,46.92
2023-04-22T12:36:44.030Z,47.76
2023-04-22T12:39:15.715Z,48.89
2023-04-22T12:41:48.453Z,49.96
2023-04-22T12:44:15.556Z,48.82
2023-04-22T12:46:44.169Z,47.64
2023-04-22T12:49:14.489Z,50.38
2023-04-22T12:51:42.304Z,47.97
2023-04-22T12:54:12.419Z,49.64
2023-04-22T12:56:43.789Z,45.94
2023-04-22T12:59:11.073Z,51.76
2023-04-22T13:01:38.877Z,48.51
2023-04-22T13:04:06.445Z,48.35
2023-04-22T13:06:34.640Z,48.99
2023-04-22T13:09:03.875Z,50.41
2023-04-22T13:11:33.834Z,48.76
2023-04-22T13:14:03.921Z,46.72
2023-04-22T13:16:36.463Z,47.15
2023-04-22T13:19:06.410Z,47.08
2023-04-22T13:21:34.160Z,46.08
2023-04-22T13:24:01.254Z,45.69
2023-04-22T13:26:30.747Z,47.06
2023-04-22T13:28:58.205Z,46.28
2023-04-22T13:31:25.608Z,47.68
2023-04-22T13:33:52.825Z,46.48
2023-04-22T13:36:20.968Z,52.95
2023-04-22T13:38:48.185Z,46.64
2023-04-22T13:41:15.773Z,46.59
2023-04-22T13:43:44.297Z,46.48
2023-04-22T13:46:11.706Z,46.25
2023-04-22T13:48:39.131Z,47.10
2023-04-22T13:51:07.088Z,47.21
2023-04-22T13:53:34.710Z,49.19
2023-04-22T13:56:01.797Z,46.31
2023-04-22T13:58:33.143Z,47.21
2023-04-22T14:01:00.370Z,46.47
2023-04-22T14:03:30.095Z,45.22
2023-04-22T14:05:57.481Z,49.45
2023-04-22T14:08:25.167Z,44.81
2023-04-22T14:10:52.666Z,45.34
2023-04-22T14:13:23.624Z,44.42
2023-04-22T14:15:55.149Z,46.47
2023-04-22T14:18:25.762Z,45.14
2023-04-22T14:20:55.676Z,45.28
2023-04-22T14:23:22.869Z,45.09
2023-04-22T14:25:50.120Z,48.32
2023-04-22T14:28:20.095Z,47.78
2023-04-22T14:30:47.317Z,45.26
2023-04-22T14:33:17.393Z,46.49
2023-04-22T14:35:44.792Z,45.29
2023-04-22T14:38:12.692Z,44.90
2023-04-22T14:40:40.885Z,45.82
2023-04-22T14:43:08.076Z,46.02
2023-04-22T14:45:35.518Z,46.37
2023-04-22T14:48:02.765Z,47.97
2023-04-22T14:50:30.761Z,46.02
2023-04-22T14:53:03.450Z,48.04
2023-04-22T14:55:43.757Z,46.31
2023-04-22T14:58:11.130Z,46.52
2023-04-22T15:00:38.638Z,48.27
2023-04-22T15:03:06.214Z,47.24
2023-04-22T15:05:33.785Z,47.08
2023-04-22T15:08:00.901Z,46.78
2023-04-22T15:10:28.290Z,46.59
2023-04-22T15:12:56.101Z,48.70
2023-04-22T15:15:23.581Z,47.26
2023-04-22T15:17:51.974Z,48.54
2023-04-22T15:20:24.827Z,48.97
2023-04-22T15:22:52.205Z,47.61
2023-04-22T15:25:20.924Z,47.74
2023-04-22T15:27:49.158Z,48.14
2023-04-22T15:30:16.364Z,47.58
2023-04-22T15:32:43.738Z,47.42
2023-04-22T15:35:23.426Z,48.98
2023-04-22T15:37:50.756Z,48.02
2023-04-22T15:40:17.925Z,48.09
2023-04-22T15:42:45.275Z,48.89
2023-04-22T15:45:12.579Z,48.79
2023-04-22T15:47:48.933Z,50.29
2023-04-22T15:50:18.762Z,50.14
2023-04-22T15:52:47.188Z,51.10
2023-04-22T15:55:15.096Z,50.60
2023-04-22T15:57:42.494Z,50.06
2023-04-22T16:00:13.462Z,50.40
2023-04-22T16:02:57.756Z,50.74
2023-04-22T16:05:26.024Z,50.28
2023-04-22T16:07:53.694Z,50.41
2023-04-22T16:10:26.302Z,49.91
2023-04-22T16:12:53.482Z,50.76
2023-04-22T16:15:22.706Z,51.64
2023-04-22T16:17:50.868Z,51.96
2023-04-22T16:20:18.817Z,52.20
2023-04-22T16:22:45.956Z,52.09
2023-04-22T16:25:13.207Z,51.47
2023-04-22T16:27:43.573Z,52.02
2023-04-22T16:30:12.380Z,53.32
2023-04-22T16:32:42.305Z,53.32
2023-04-22T16:35:10.461Z,53.24
2023-04-22T16:37:37.555Z,54.01
2023-04-22T16:40:17.542Z,53.63
2023-04-22T16:42:44.746Z,52.99
2023-04-22T16:45:14.460Z,54.36
2023-04-22T16:47:45.237Z,54.64
2023-04-22T16:50:12.523Z,54.05
2023-04-22T16:52:40.514Z,54.02
2023-04-22T16:55:08.371Z,54.91
2023-04-22T16:57:36.066Z,55.47
2023-04-22T17:00:05.937Z,55.22
2023-04-22T17:02:36.031Z,55.17
2023-04-22T17:05:07.151Z,56.26
2023-04-22T17:07:43.358Z,55.52
2023-04-22T17:10:10.838Z,55.61
2023-04-22T17:12:49.986Z,56.68
2023-04-22T17:15:17.732Z,57.38
2023-04-22T17:17:53.036Z,57.69
2023-04-22T17:23:06.735Z,57.22
2023-04-22T17:25:39.718Z,57.94
2023-04-22T17:28:11.553Z,58.24
2023-04-22T17:30:39.090Z,58.95
2023-04-22T17:33:06.227Z,59.05
2023-04-22T17:35:33.381Z,58.60
2023-04-22T17:38:06.033Z,59.45
2023-04-22T17:40:42.170Z,59.57
2023-04-22T17:43:12.240Z,59.39
2023-04-22T17:45:49.538Z,59.71
2023-04-22T17:48:16.742Z,60.32
2023-04-22T17:50:43.950Z,60.33
2023-04-22T17:53:18.480Z,60.85
2023-04-22T17:55:49.768Z,60.96
2023-04-22T17:58:16.922Z,61.28
2023-04-22T18:00:46.613Z,61.33
2023-04-22T18:03:17.615Z,61.36
2023-04-22T18:05:44.802Z,61.67
2023-04-22T18:08:14.743Z,62.11
2023-04-22T18:10:41.931Z,62.29
2023-04-22T18:13:09.015Z,62.96
2023-04-22T18:15:37.873Z,63.10
2023-04-22T18:18:05.814Z,63.26
2023-04-22T18:20:33.712Z,64.12
2023-04-22T18:23:04.118Z,64.05
2023-04-22T18:25:34.000Z,65.05
2023-04-22T18:28:04.770Z,65.72
2023-04-22T18:30:32.893Z,65.84
2023-04-22T18:33:11.622Z,67.33
2023-04-22T18:35:44.420Z,67.07
2023-04-22T18:38:12.986Z,67.62
2023-04-22T18:40:41.007Z,68.48
2023-04-22T18:43:09.587Z,68.38
2023-04-22T18:45:36.713Z,69.27
2023-04-22T18:48:06.106Z,69.68
2023-04-22T18:50:33.306Z,70.45
2023-04-22T18:53:00.654Z,70.71
2023-04-22T18:55:29.920Z,70.81
2023-04-22T18:58:04.143Z,70.92
2023-04-22T19:00:32.723Z,72.21
2023-04-22T19:03:07.564Z,72.37
2023-04-22T19:05:44.931Z,73.57
2023-04-22T19:08:19.324Z,72.42
2023-04-22T19:10:47.782Z,72.60
2023-04-22T19:13:28.158Z,73.11
2023-04-22T19:15:56.720Z,73.62
2023-04-22T19:18:24.017Z,73.24
2023-04-22T19:20:51.207Z,73.59
2023-04-22T19:23:22.313Z,73.03
2023-04-22T19:25:50.433Z,72.53
2023-04-22T19:28:17.820Z,73.28
2023-04-22T19:30:45.184Z,72.98
2023-04-22T19:33:12.746Z,72.53
2023-04-22T19:35:39.904Z,72.92
2023-04-22T19:38:07.692Z,74.25
2023-04-22T19:40:34.871Z,73.99
2023-04-22T19:43:01.884Z,74.59
2023-04-22T19:45:30.211Z,75.24
2023-04-22T19:48:00.391Z,75.41
2023-04-22T19:50:27.967Z,75.06
2023-04-22T19:53:05.372Z,75.74
2023-04-22T19:55:33.850Z,76.00
2023-04-22T19:58:01.114Z,76.96
2023-04-22T20:00:28.471Z,77.38
2023-04-22T20:02:56.870Z,77.46
2023-04-22T20:05:24.799Z,77.75
2023-04-22T20:07:52.441Z,78.09
2023-04-22T20:10:22.633Z,78.33
2023-04-22T20:12:53.530Z,79.62
2023-04-22T20:15:20.922Z,80.18
2023-04-22T20:17:49.456Z,80.91
2023-04-22T20:20:17.828Z,80.97
2023-04-22T20:22:46.183Z,81.65
2023-04-22T20:25:15.444Z,81.68
2023-04-22T20:27:43.161Z,82.37
2023-04-22T20:30:11.566Z,82.26
2023-04-22T20:32:38.901Z,82.25
2023-04-22T20:35:07.090Z,82.45
2023-04-22T20:37:36.036Z,83.42
2023-04-22T20:40:05.720Z,83.96
2023-04-22T20:42:33.157Z,84.93
2023-04-22T20:45:00.505Z,85.13
2023-04-22T20:47:27.703Z,85.45
2023-04-22T20:49:54.804Z,86.02
2023-04-22T20:52:23.356Z,85.98
2023-04-22T20:54:57.100Z,86.38
2023-04-22T20:57:25.420Z,85.58
2023-04-22T20:59:52.646Z,84.66
2023-04-22T21:02:20.246Z,84.49
2023-04-22T21:04:57.693Z,84.26
2023-04-22T21:07:30.756Z,83.15
2023-04-22T21:10:00.843Z,83.40
2023-04-22T21:12:28.291Z,83.00
2023-04-22T21:14:55.830Z,83.98
2023-04-22T21:17:29.800Z,83.88
2023-04-22T21:20:04.031Z,84.55
2023-04-22T21:22:37.729Z,84.08
2023-04-22T21:25:07.246Z,83.42
2023-04-22T21:27:37.816Z,83.60
2023-04-22T21:30:08.611Z,82.93
2023-04-22T21:32:40.515Z,82.27
2023-04-22T21:35:08.504Z,82.12
2023-04-22T21:37:35.658Z,82.40
2023-04-22T21:40:02.727Z,82.23
2023-04-22T21:42:33.267Z,83.39
2023-04-22T21:45:00.307Z,82.91
2023-04-22T21:47:27.499Z,82.66
2023-04-22T21:49:54.646Z,82.55
2023-04-22T21:52:21.781Z,82.26
2023-04-22T21:54:49.747Z,82.18
2023-04-22T21:57:16.848Z,82.60
2023-04-22T21:59:43.909Z,84.39
2023-04-22T22:02:15.866Z,84.83
2023-04-22T22:04:43.446Z,85.93
2023-04-22T22:07:12.272Z,87.01
2023-04-22T22:09:40.161Z,88.44
2023-04-22T22:12:10.576Z,89.88
2023-04-22T22:14:38.330Z,90.53
2023-04-22T22:17:14.572Z,90.81
2023-04-22T22:19:50.460Z,91.75
2023-04-22T22:22:17.575Z,92.89
2023-04-22T22:24:45.587Z,94.22
2023-04-22T22:27:12.760Z,94.26
2023-04-22T22:29:40.923Z,94.58
2023-04-22T22:32:12.938Z,95.32
2023-04-22T22:34:46.474Z,96.77
2023-04-22T22:37:13.810Z,96.97
2023-04-22T22:39:43.997Z,97.18
2023-04-22T22:42:13.061Z,97.36
2023-04-22T22:44:40.593Z,96.91
2023-04-22T22:47:09.215Z,98.14
2023-04-22T22:49:37.607Z,99.56
2023-04-22T22:52:04.877Z,99.29
2023-04-22T22:54:36.422Z,98.51
2023-04-22T22:57:07.094Z,98.65
2023-04-22T22:59:36.754Z,98.29
2023-04-22T23:02:04.299Z,98.38
2023-04-22T23:04:31.590Z,98.22
2023-04-22T23:06:58.870Z,98.40
2023-04-22T23:09:26.050Z,98.65
2023-04-22T23:12:02.730Z,98.30
2023-04-22T23:14:35.175Z,99.02
2023-04-22T23:17:05.175Z,100.00
2023-04-22T23:19:32.604Z,100.00
2023-04-22T23:21:59.856Z,100.00
2023-04-22T23:24:27.269Z,100.00
2023-04-22T23:26:54.655Z,100.00
2023-04-22T23:29:22.201Z,100.00
2023-04-22T23:31:52.368Z,100.00
2023-04-22T23:34:22.885Z,100.00
2023-04-22T23:36:50.500Z,100.00
2023-04-22T23:39:17.836Z,100.00
2023-04-22T23:41:47.746Z,100.00
2023-04-22T23:44:14.864Z,100.00
2023-04-22T23:46:42.329Z,100.00
2023-04-22T23:49:09.474Z,100.00
2023-04-22T23:51:36.827Z,100.00
2023-04-22T23:54:04.027Z,100.00
2023-04-22T23:56:31.355Z,100.00
2023-04-22T23:59:02.861Z,100.00
